Time;durP1;ratioP1;P1;durP2;ratioP2;P2;SDS_P1;SDS_P2;PMS_P1;PMS_P2;Temp;Humidity;BMP_temperature;BMP_pressure;BME280_temperature;BME280_humidity;BME280_pressure;Samples;Min_cycle;Max_cycle;Signal;HPM_P1;HPM_P2
2022/03/29 00:00:42;;;;;;;26.87;17.60;;;14.40;67.30;;;;;;5077093;28;20488;-65
2022/03/29 00:03:09;;;;;;;23.83;16.77;;;14.40;67.60;;;;;;5077253;28;20457;-65
2022/03/29 00:05:37;;;;;;;28.00;18.90;;;14.40;67.70;;;;;;5077247;28;20449;-65
2022/03/29 00:08:05;;;;;;;23.97;16.97;;;14.30;67.60;;;;;;5077242;28;20448;-65
2022/03/29 00:10:34;;;;;;;26.20;17.10;;;14.30;67.90;;;;;;5077033;28;20441;-65
2022/03/29 00:13:01;;;;;;;27.67;17.40;;;14.20;67.90;;;;;;5077009;28;20506;-65
2022/03/29 00:15:29;;;;;;;24.20;17.03;;;14.20;68.20;;;;;;5076951;28;20445;-64
2022/03/29 00:17:56;;;;;;;27.47;17.10;;;14.20;68.40;;;;;;5076874;28;20452;-65
2022/03/29 00:20:23;;;;;;;25.20;17.27;;;14.20;68.70;;;;;;5076386;28;20452;-65
2022/03/29 00:22:50;;;;;;;23.87;17.50;;;14.20;68.70;;;;;;5076803;28;20460;-65
2022/03/29 00:25:18;;;;;;;29.03;16.77;;;14.20;68.90;;;;;;5076751;28;20448;-65
2022/03/29 00:27:46;;;;;;;28.13;17.40;;;14.10;69.10;;;;;;5076733;28;20455;-65
2022/03/29 00:30:15;;;;;;;26.27;16.57;;;14.10;69.30;;;;;;5076582;28;20449;-65
2022/03/29 00:32:42;;;;;;;24.00;17.13;;;14.10;69.20;;;;;;5076524;28;20527;-64
2022/03/29 00:35:09;;;;;;;25.20;18.13;;;14.00;69.20;;;;;;5076702;28;20456;-65
2022/03/29 00:37:36;;;;;;;27.17;18.03;;;14.10;69.60;;;;;;5076595;28;20502;-65
2022/03/29 00:40:04;;;;;;;28.90;17.63;;;14.00;69.90;;;;;;5076528;28;20456;-65
2022/03/29 00:42:31;;;;;;;22.73;15.77;;;14.00;69.60;;;;;;5076342;28;20488;-65
2022/03/29 00:44:59;;;;;;;25.83;17.10;;;13.90;69.30;;;;;;5076420;28;20452;-64
2022/03/29 00:47:26;;;;;;;24.20;16.10;;;13.90;69.40;;;;;;5076457;28;20452;-65
2022/03/29 00:49:53;;;;;;;24.57;16.83;;;13.80;69.50;;;;;;5076060;28;20457;-65
2022/03/29 00:52:20;;;;;;;22.87;15.23;;;13.80;69.60;;;;;;5076378;28;20463;-65
2022/03/29 00:54:48;;;;;;;29.23;16.33;;;13.80;69.60;;;;;;5076332;28;20448;-65
2022/03/29 00:57:15;;;;;;;23.67;16.13;;;13.70;69.80;;;;;;5075987;28;20951;-65
2022/03/29 00:59:44;;;;;;;25.37;17.37;;;13.70;70.10;;;;;;5076145;28;20819;-64
2022/03/29 01:02:13;;;;;;;23.93;16.50;;;13.70;70.50;;;;;;5075662;28;20891;-64
2022/03/29 01:04:40;;;;;;;20.57;15.10;;;13.70;70.60;;;;;;5076348;28;20452;-64
2022/03/29 01:07:07;;;;;;;25.60;16.53;;;13.70;70.90;;;;;;5075852;28;20451;-65
2022/03/29 01:09:34;;;;;;;19.57;15.10;;;13.70;71.30;;;;;;5074895;28;20456;-65
2022/03/29 01:12:01;;;;;;;24.53;16.33;;;13.70;71.20;;;;;;5075944;28;20461;-65
2022/03/29 01:14:29;;;;;;;24.97;16.03;;;13.70;71.20;;;;;;5075736;28;20931;-65
2022/03/29 01:19:44;;;;;;;19.63;14.80;;;13.60;71.70;;;;;;5075626;28;20439;-65
2022/03/29 01:22:13;;;;;;;27.03;15.60;;;13.50;71.70;;;;;;5075767;28;20534;-65
2022/03/29 01:24:43;;;;;;;25.07;15.70;;;13.50;72.10;;;;;;5075422;28;20448;-65
2022/03/29 01:27:12;;;;;;;20.50;15.07;;;13.50;72.20;;;;;;5075748;28;20448;-65
2022/03/29 01:29:39;;;;;;;22.83;15.87;;;13.50;72.30;;;;;;5075559;28;20453;-65
2022/03/29 01:32:09;;;;;;;21.50;14.33;;;13.50;72.60;;;;;;5075575;28;20461;-65
2022/03/29 01:34:38;;;;;;;20.77;14.53;;;13.50;72.50;;;;;;5075553;28;20456;-65
2022/03/29 01:37:05;;;;;;;20.93;15.30;;;13.40;72.40;;;;;;5075463;28;20487;-64
2022/03/29 01:39:34;;;;;;;25.87;15.77;;;13.40;72.70;;;;;;5075432;28;20452;-65
2022/03/29 01:42:01;;;;;;;20.60;14.80;;;13.30;72.80;;;;;;5075244;28;20483;-65
2022/03/29 01:44:28;;;;;;;23.00;14.27;;;13.20;73.10;;;;;;5075435;28;20453;-65
2022/03/29 01:46:55;;;;;;;17.87;14.10;;;13.20;73.30;;;;;;5075007;28;20961;-64
2022/03/29 01:49:22;;;;;;;22.33;14.77;;;13.20;73.70;;;;;;5075278;28;20453;-64
2022/03/29 01:51:49;;;;;;;20.80;14.80;;;13.10;73.60;;;;;;5075158;28;20456;-65
2022/03/29 01:54:16;;;;;;;26.70;15.77;;;13.10;73.70;;;;;;5075209;28;20456;-65
2022/03/29 01:56:44;;;;;;;28.13;15.50;;;13.10;74.00;;;;;;5075140;28;20449;-65
2022/03/29 01:59:12;;;;;;;21.53;14.60;;;13.10;74.10;;;;;;5074776;28;21062;-65
2022/03/29 02:01:40;;;;;;;21.57;14.93;;;13.00;74.20;;;;;;5074820;28;20485;-65
2022/03/29 02:04:07;;;;;;;26.00;16.50;;;13.00;74.50;;;;;;5074635;28;20531;-65
2022/03/29 02:06:35;;;;;;;21.10;16.13;;;13.00;74.70;;;;;;5074907;28;20448;-65
2022/03/29 02:09:02;;;;;;;21.90;15.70;;;13.00;74.90;;;;;;5074853;28;20440;-65
2022/03/29 02:11:29;;;;;;;22.73;15.70;;;13.00;75.20;;;;;;5074655;28;20464;-65
2022/03/29 02:13:57;;;;;;;19.70;14.23;;;13.00;75.30;;;;;;5074687;28;20444;-65
2022/03/29 02:16:23;;;;;;;25.40;14.97;;;13.00;75.30;;;;;;5074773;28;20868;-65
2022/03/29 02:18:50;;;;;;;21.40;14.83;;;13.00;75.40;;;;;;5073843;28;20830;-65
2022/03/29 02:21:18;;;;;;;25.83;16.77;;;13.00;75.60;;;;;;5074414;28;20490;-65
2022/03/29 02:23:45;;;;;;;22.27;14.60;;;13.00;75.60;;;;;;5074217;28;20455;-65
2022/03/29 02:26:12;;;;;;;24.63;15.27;;;13.00;75.70;;;;;;5074468;28;20506;-65
2022/03/29 02:28:39;;;;;;;20.40;15.47;;;12.90;75.90;;;;;;5074491;28;20441;-65
2022/03/29 02:31:07;;;;;;;22.77;14.83;;;12.90;76.10;;;;;;5074359;28;20473;-65
2022/03/29 02:33:34;;;;;;;21.27;15.60;;;12.90;76.40;;;;;;5074320;28;20785;-65
2022/03/29 02:36:00;;;;;;;24.20;16.57;;;12.90;76.60;;;;;;5074304;28;20449;-65
2022/03/29 02:38:27;;;;;;;21.07;14.97;;;12.90;76.70;;;;;;5074288;28;20444;-65
2022/03/29 02:40:57;;;;;;;23.13;16.27;;;12.90;76.80;;;;;;5074140;28;20879;-65
2022/03/29 02:43:25;;;;;;;26.27;17.87;;;12.90;76.90;;;;;;5074123;28;20617;-65
2022/03/29 02:45:52;;;;;;;23.70;15.37;;;12.90;76.90;;;;;;5074133;28;20437;-65
2022/03/29 02:48:20;;;;;;;18.17;14.63;;;12.90;76.90;;;;;;5073790;28;20940;-65
2022/03/29 02:50:47;;;;;;;21.53;14.57;;;12.90;76.80;;;;;;5073937;28;20464;-65
2022/03/29 02:53:15;;;;;;;20.83;14.37;;;12.90;76.90;;;;;;5074040;28;20577;-65
2022/03/29 02:55:42;;;;;;;23.37;16.43;;;12.80;77.10;;;;;;5074765;28;20536;-65
2022/03/29 02:58:10;;;;;;;21.53;15.93;;;12.80;77.20;;;;;;5073773;28;20453;-65
2022/03/29 03:00:37;;;;;;;23.50;15.53;;;12.80;77.40;;;;;;5073906;28;20459;-65
2022/03/29 03:03:04;;;;;;;19.00;14.77;;;12.80;77.80;;;;;;5073732;28;20481;-65
2022/03/29 03:05:33;;;;;;;22.07;16.80;;;12.80;77.60;;;;;;5073501;28;20448;-64
2022/03/29 03:08:00;;;;;;;21.43;15.40;;;12.80;77.70;;;;;;5073749;28;20457;-65
2022/03/29 03:10:28;;;;;;;21.07;15.03;;;12.80;77.80;;;;;;5073672;28;20498;-64
2022/03/29 03:12:54;;;;;;;24.37;16.23;;;12.80;78.00;;;;;;5073623;28;20449;-64
2022/03/29 03:15:23;;;;;;;20.03;16.47;;;12.80;78.20;;;;;;5073652;28;20452;-65
2022/03/29 03:17:52;;;;;;;27.10;16.00;;;12.70;78.00;;;;;;5073700;28;20445;-65
2022/03/29 03:20:18;;;;;;;21.10;17.30;;;12.70;78.10;;;;;;5073152;28;20467;-65
2022/03/29 03:22:46;;;;;;;22.60;14.70;;;12.70;78.40;;;;;;5073082;28;21025;-65
2022/03/29 03:25:14;;;;;;;26.73;16.60;;;12.70;78.60;;;;;;5073167;28;20962;-65
2022/03/29 03:27:41;;;;;;;24.47;15.70;;;12.70;78.70;;;;;;5073506;28;20448;-65
2022/03/29 03:30:11;;;;;;;28.07;17.47;;;12.70;78.90;;;;;;5073062;28;20448;-65
2022/03/29 03:32:38;;;;;;;25.43;17.50;;;12.70;79.30;;;;;;5072838;28;20583;-64
2022/03/29 03:35:06;;;;;;;25.37;18.50;;;12.70;79.40;;;;;;5073368;28;20440;-65
2022/03/29 03:37:33;;;;;;;27.60;17.10;;;12.70;79.50;;;;;;5073441;28;20451;-65
2022/03/29 03:40:01;;;;;;;22.97;17.27;;;12.70;79.80;;;;;;5073439;28;20456;-65
2022/03/29 03:42:28;;;;;;;22.60;15.67;;;12.70;80.00;;;;;;5073367;28;20487;-65
2022/03/29 03:44:55;;;;;;;20.40;16.40;;;12.70;80.10;;;;;;5073053;28;20931;-65
2022/03/29 03:47:22;;;;;;;23.23;17.73;;;12.70;80.10;;;;;;5073267;28;20445;-65
2022/03/29 03:49:48;;;;;;;26.50;18.67;;;12.70;80.00;;;;;;5073294;28;20452;-64
2022/03/29 03:52:15;;;;;;;28.40;19.47;;;12.70;80.20;;;;;;5072921;28;20473;-65
2022/03/29 03:54:42;;;;;;;24.13;17.67;;;12.70;80.20;;;;;;5073272;28;20449;-64
2022/03/29 03:57:10;;;;;;;24.90;18.60;;;12.70;80.10;;;;;;5073007;28;20457;-64
2022/03/29 03:59:37;;;;;;;23.67;19.03;;;12.70;80.20;;;;;;5073187;28;20449;-65
2022/03/29 04:02:04;;;;;;;20.77;17.30;;;12.60;80.00;;;;;;5072916;28;20480;-64
2022/03/29 04:04:31;;;;;;;26.30;17.27;;;12.60;80.00;;;;;;5073017;28;20456;-64
2022/03/29 04:06:58;;;;;;;25.80;18.10;;;12.60;80.00;;;;;;5073055;28;20814;-64
2022/03/29 04:09:25;;;;;;;26.10;18.37;;;12.60;80.00;;;;;;5072998;28;20464;-65
2022/03/29 04:11:52;;;;;;;26.50;19.10;;;12.60;80.10;;;;;;5072954;28;20475;-64
2022/03/29 04:14:20;;;;;;;25.90;18.50;;;12.60;80.20;;;;;;5073113;28;20476;-64
2022/03/29 04:16:47;;;;;;;23.97;17.93;;;12.60;79.90;;;;;;5073035;28;20448;-65
2022/03/29 04:19:13;;;;;;;23.37;17.13;;;12.60;79.80;;;;;;5072817;28;20457;-65
2022/03/29 04:21:40;;;;;;;24.60;17.60;;;12.60;79.70;;;;;;5072710;28;21002;-65
2022/03/29 04:24:07;;;;;;;27.97;19.70;;;12.60;79.60;;;;;;5073002;28;20453;-65
2022/03/29 04:26:34;;;;;;;24.90;17.90;;;12.50;79.50;;;;;;5072936;28;20429;-65
2022/03/29 04:29:01;;;;;;;25.87;18.07;;;12.50;79.50;;;;;;5072573;28;20453;-65
2022/03/29 04:31:29;;;;;;;23.43;16.30;;;12.50;79.40;;;;;;5072756;28;20465;-65
2022/03/29 04:33:56;;;;;;;24.73;17.40;;;12.40;79.40;;;;;;5072882;28;20451;-65
2022/03/29 04:36:24;;;;;;;22.27;17.23;;;12.40;79.50;;;;;;5072567;28;20940;-65
2022/03/29 04:38:51;;;;;;;22.37;16.73;;;12.30;79.50;;;;;;5072800;28;20461;-65
2022/03/29 04:41:18;;;;;;;25.20;18.17;;;12.20;79.80;;;;;;5072717;28;20472;-65
2022/03/29 04:43:45;;;;;;;26.27;17.57;;;12.20;80.00;;;;;;5075377;28;21006;-65
2022/03/29 04:46:11;;;;;;;22.97;16.63;;;12.20;79.90;;;;;;5076603;28;20458;-65
2022/03/29 04:48:39;;;;;;;22.90;19.50;;;12.10;80.00;;;;;;5076117;28;20448;-65
2022/03/29 04:51:06;;;;;;;22.40;17.03;;;12.10;80.30;;;;;;5076448;28;20468;-65
2022/03/29 04:53:33;;;;;;;21.50;17.07;;;12.10;80.10;;;;;;5076411;28;20447;-64
2022/03/29 04:56:00;;;;;;;22.63;16.30;;;12.10;80.20;;;;;;5076302;28;20460;-64
2022/03/29 04:58:27;;;;;;;22.13;17.00;;;12.00;80.20;;;;;;5076782;28;20952;-64
2022/03/29 05:00:54;;;;;;;28.40;16.90;;;12.00;80.30;;;;;;5076341;28;20471;-64
2022/03/29 05:03:21;;;;;;;28.17;18.90;;;12.00;80.30;;;;;;5076257;28;20480;-64
2022/03/29 05:05:49;;;;;;;25.10;17.00;;;12.00;80.30;;;;;;5076203;28;20436;-64
2022/03/29 05:08:15;;;;;;;30.40;20.00;;;12.00;80.40;;;;;;5076278;28;20449;-65
2022/03/29 05:10:42;;;;;;;24.00;17.60;;;12.00;80.50;;;;;;5076136;28;20464;-65
2022/03/29 05:13:09;;;;;;;22.43;16.20;;;11.90;80.20;;;;;;5076058;28;20448;-65
2022/03/29 05:15:36;;;;;;;25.20;16.17;;;11.90;79.80;;;;;;5076098;28;20496;-65
2022/03/29 05:18:03;;;;;;;21.70;17.90;;;11.80;79.20;;;;;;5075788;28;20588;-65
2022/03/29 05:20:30;;;;;;;22.43;16.40;;;11.70;79.00;;;;;;5075481;28;20447;-65
2022/03/29 05:23:00;;;;;;;22.73;17.43;;;11.70;79.20;;;;;;5075728;28;20479;-65
2022/03/29 05:25:27;;;;;;;19.77;16.07;;;11.70;79.40;;;;;;5075862;28;20444;-65
2022/03/29 05:27:57;;;;;;;22.90;18.23;;;11.70;79.30;;;;;;5075539;28;20947;-65
2022/03/29 05:30:24;;;;;;;26.90;17.83;;;11.70;79.60;;;;;;5075764;28;20429;-65
2022/03/29 05:32:57;;;;;;;26.00;19.30;;;11.70;79.80;;;;;;5075761;28;20447;-64
2022/03/29 05:35:29;;;;;;;26.87;19.40;;;11.60;79.90;;;;;;5075785;28;20469;-64
2022/03/29 05:37:56;;;;;;;21.93;17.60;;;11.70;81.60;;;;;;5075623;28;20432;-65
2022/03/29 05:40:26;;;;;;;27.53;19.77;;;11.70;81.40;;;;;;5075504;28;20811;-64
2022/03/29 05:42:53;;;;;;;25.50;19.27;;;11.70;81.50;;;;;;5075563;28;20495;-65
2022/03/29 05:45:21;;;;;;;23.57;18.60;;;11.70;81.90;;;;;;5075833;28;20445;-64
2022/03/29 05:50:33;;;;;;;25.47;19.40;;;11.70;82.40;;;;;;5075425;28;20488;-65
2022/03/29 05:53:01;;;;;;;27.37;19.30;;;11.70;82.40;;;;;;5075526;28;20539;-65
2022/03/29 05:55:30;;;;;;;25.03;19.47;;;11.80;82.50;;;;;;5075092;28;20453;-65
2022/03/29 05:57:57;;;;;;;25.50;19.80;;;11.80;82.50;;;;;;5075341;28;20448;-64
2022/03/29 06:00:25;;;;;;;26.77;20.77;;;11.80;82.80;;;;;;5075086;28;21002;-65
2022/03/29 06:02:53;;;;;;;41.73;21.27;;;11.80;83.10;;;;;;5075129;28;20542;-65
2022/03/29 06:05:20;;;;;;;28.77;20.60;;;11.80;84.20;;;;;;5074951;28;20452;-65
2022/03/29 06:07:47;;;;;;;26.53;20.83;;;11.80;83.60;;;;;;5075210;28;20535;-65
2022/03/29 06:10:14;;;;;;;26.47;21.27;;;11.90;84.00;;;;;;5075154;28;20445;-64
2022/03/29 06:12:45;;;;;;;28.57;20.73;;;11.90;84.20;;;;;;5075015;28;20461;-65
2022/03/29 06:15:13;;;;;;;27.80;21.20;;;11.90;84.20;;;;;;5075181;28;20472;-65
2022/03/29 06:17:40;;;;;;;28.37;21.50;;;12.00;84.30;;;;;;5074915;28;20459;-64
2022/03/29 06:20:09;;;;;;;33.17;23.30;;;12.00;84.10;;;;;;5074651;28;20483;-64
2022/03/29 06:22:39;;;;;;;32.03;22.03;;;12.10;84.00;;;;;;5074780;28;20495;-64
2022/03/29 06:25:08;;;;;;;27.87;22.33;;;12.10;83.90;;;;;;5074792;28;20490;-64
2022/03/29 06:27:35;;;;;;;32.77;22.97;;;12.20;83.70;;;;;;5074268;28;20982;-64
2022/03/29 06:30:04;;;;;;;30.40;19.47;;;12.20;83.60;;;;;;5074353;28;20425;-64
2022/03/29 06:32:32;;;;;;;30.83;20.77;;;12.20;83.50;;;;;;5074571;28;20469;-63
2022/03/29 06:34:59;;;;;;;28.30;20.17;;;12.30;83.40;;;;;;5074626;28;20448;-64
2022/03/29 06:37:26;;;;;;;25.63;19.47;;;12.30;83.40;;;;;;5074624;28;20475;-64
2022/03/29 06:39:52;;;;;;;30.23;22.13;;;12.40;83.80;;;;;;5074475;28;20445;-65
2022/03/29 06:42:19;;;;;;;29.07;24.57;;;12.40;82.90;;;;;;5073951;28;20481;-64
2022/03/29 06:44:47;;;;;;;30.30;23.03;;;12.40;83.00;;;;;;5074382;28;20449;-64
2022/03/29 06:47:16;;;;;;;31.93;23.07;;;12.50;83.00;;;;;;5074404;28;20480;-64
2022/03/29 06:49:43;;;;;;;28.60;22.40;;;12.50;83.00;;;;;;5074527;28;20480;-64
2022/03/29 06:52:10;;;;;;;31.87;26.30;;;12.60;83.10;;;;;;5073822;28;20980;-64
2022/03/29 06:54:38;;;;;;;32.27;25.60;;;12.60;83.20;;;;;;5073977;28;20460;-64
2022/03/29 06:57:08;;;;;;;32.47;25.47;;;12.70;83.10;;;;;;5074013;28;20475;-64
2022/03/29 06:59:35;;;;;;;30.37;24.40;;;12.80;83.20;;;;;;5073752;28;20813;-65
2022/03/29 07:02:02;;;;;;;34.57;24.40;;;12.80;83.20;;;;;;5073887;28;20471;-65
2022/03/29 07:04:30;;;;;;;35.23;24.77;;;12.90;82.90;;;;;;5073841;28;20487;-65
2022/03/29 07:06:56;;;;;;;32.60;26.07;;;12.90;82.70;;;;;;5073913;28;20444;-64
2022/03/29 07:12:07;;;;;;;36.27;26.90;;;13.00;82.00;;;;;;5073584;28;20478;-65
2022/03/29 07:14:34;;;;;;;29.93;25.03;;;13.00;81.30;;;;;;5073674;28;20468;-65
2022/03/29 07:17:04;;;;;;;33.27;25.37;;;13.10;80.90;;;;;;5073456;28;20944;-65
2022/03/29 07:19:32;;;;;;;34.50;26.43;;;13.10;80.90;;;;;;5073706;28;20483;-65
2022/03/29 07:21:59;;;;;;;35.90;28.20;;;13.20;81.20;;;;;;5073617;28;20472;-65
2022/03/29 07:24:26;;;;;;;32.50;26.40;;;13.30;81.10;;;;;;5073633;28;20485;-64
2022/03/29 07:26:52;;;;;;;34.70;28.53;;;13.30;81.20;;;;;;5073565;28;20451;-65
2022/03/29 07:29:19;;;;;;;33.30;26.37;;;13.40;80.80;;;;;;5073463;28;20449;-65
2022/03/29 07:31:46;;;;;;;34.17;26.17;;;13.50;80.90;;;;;;5073357;28;20462;-65
2022/03/29 07:34:13;;;;;;;37.60;27.03;;;13.50;80.10;;;;;;5073586;28;20440;-65
2022/03/29 07:36:41;;;;;;;34.40;27.37;;;13.60;80.10;;;;;;5073491;28;20448;-65
2022/03/29 07:39:08;;;;;;;33.10;25.53;;;13.70;79.90;;;;;;5073376;28;20453;-65
2022/03/29 07:41:35;;;;;;;35.20;25.83;;;13.70;79.20;;;;;;5073323;28;20464;-65
2022/03/29 07:44:02;;;;;;;32.70;25.67;;;13.80;79.20;;;;;;5073290;28;20480;-65
2022/03/29 07:46:29;;;;;;;34.33;25.93;;;13.90;78.70;;;;;;5073338;28;20497;-65
2022/03/29 07:48:56;;;;;;;34.73;27.60;;;14.00;79.50;;;;;;5073363;28;20455;-66
2022/03/29 07:51:23;;;;;;;34.40;29.13;;;14.10;78.60;;;;;;5073266;28;20472;-66
2022/03/29 07:53:51;;;;;;;40.10;26.80;;;14.10;78.10;;;;;;5073179;28;20452;-66
2022/03/29 07:56:17;;;;;;;30.57;24.00;;;14.30;78.10;;;;;;5073201;28;20855;-66
2022/03/29 07:58:44;;;;;;;30.53;23.53;;;14.40;77.30;;;;;;5073288;28;20447;-66
2022/03/29 08:01:11;;;;;;;35.07;26.53;;;14.50;77.30;;;;;;5073132;28;20843;-66
2022/03/29 08:03:38;;;;;;;37.60;26.77;;;14.60;76.40;;;;;;5073159;28;20483;-66
2022/03/29 08:06:05;;;;;;;35.13;27.37;;;14.80;76.00;;;;;;5073186;28;20471;-66
2022/03/29 08:08:34;;;;;;;29.73;25.83;;;14.90;75.20;;;;;;5073108;28;20495;-66
2022/03/29 08:11:03;;;;;;;31.70;26.53;;;15.00;74.70;;;;;;5072733;28;20876;-65
2022/03/29 08:13:30;;;;;;;36.33;27.10;;;15.20;74.00;;;;;;5073003;28;20490;-65
2022/03/29 08:15:58;;;;;;;31.90;26.70;;;15.30;73.90;;;;;;5072674;28;20970;-66
2022/03/29 08:18:25;;;;;;;31.97;26.30;;;15.50;73.60;;;;;;5075387;28;20464;-66
2022/03/29 08:20:52;;;;;;;28.47;25.30;;;15.60;72.60;;;;;;5076928;28;20555;-66
2022/03/29 08:23:19;;;;;;;38.60;28.07;;;15.70;72.00;;;;;;5076862;28;20472;-65
2022/03/29 08:25:46;;;;;;;34.87;26.73;;;15.80;71.30;;;;;;5076745;28;20448;-65
2022/03/29 08:28:16;;;;;;;29.10;25.07;;;15.90;70.80;;;;;;5076530;28;20459;-66
2022/03/29 08:30:44;;;;;;;31.03;25.43;;;15.90;70.40;;;;;;5076799;28;20476;-66
2022/03/29 08:33:11;;;;;;;30.97;26.03;;;16.00;70.20;;;;;;5076685;28;20460;-65
2022/03/29 08:35:38;;;;;;;30.30;26.00;;;16.00;70.20;;;;;;5076695;28;20453;-65
2022/03/29 08:38:06;;;;;;;38.03;29.87;;;16.10;69.70;;;;;;5076636;28;20444;-65
2022/03/29 08:40:33;;;;;;;29.80;25.00;;;16.00;69.20;;;;;;5076114;28;20966;-66
2022/03/29 08:43:00;;;;;;;35.17;29.67;;;16.00;69.20;;;;;;5076436;28;20477;-66
2022/03/29 08:45:30;;;;;;;35.27;28.10;;;15.90;69.10;;;;;;5076485;28;20959;-65
2022/03/29 08:47:59;;;;;;;34.37;27.77;;;15.90;69.30;;;;;;5076443;28;20429;-65
2022/03/29 08:50:29;;;;;;;34.80;26.93;;;15.80;69.60;;;;;;5076334;28;20441;-66
2022/03/29 08:52:56;;;;;;;32.73;25.90;;;15.80;69.70;;;;;;5076503;28;20441;-66
2022/03/29 08:55:23;;;;;;;27.47;24.17;;;15.80;69.80;;;;;;5076498;28;20448;-65
2022/03/29 08:57:55;;;;;;;34.97;28.33;;;15.70;69.30;;;;;;5076129;28;20440;-65
2022/03/29 09:00:23;;;;;;;35.63;29.10;;;15.70;69.30;;;;;;5076229;28;20457;-65
2022/03/29 09:02:52;;;;;;;38.80;30.07;;;15.80;69.50;;;;;;5076222;28;20451;-64
2022/03/29 09:05:23;;;;;;;38.27;31.73;;;15.80;69.70;;;;;;5076025;28;20487;-64
2022/03/29 09:07:53;;;;;;;40.33;32.50;;;15.90;69.60;;;;;;5076184;28;20444;-65
2022/03/29 09:10:21;;;;;;;45.93;37.60;;;16.10;69.30;;;;;;5076119;28;20421;-65
2022/03/29 09:12:48;;;;;;;31.40;27.70;;;16.20;69.00;;;;;;5076464;28;20510;-65
2022/03/29 09:15:16;;;;;;;36.80;29.07;;;16.40;69.10;;;;;;5076819;28;20441;-64
2022/03/29 09:17:45;;;;;;;33.10;25.47;;;16.60;68.10;;;;;;5076491;28;20461;-64
2022/03/29 09:20:15;;;;;;;35.87;25.50;;;16.70;66.70;;;;;;5075909;28;21001;-65
2022/03/29 09:22:44;;;;;;;25.97;23.23;;;16.90;65.50;;;;;;5075915;28;20464;-64
2022/03/29 09:25:16;;;;;;;35.93;28.60;;;17.10;64.80;;;;;;5076100;28;20477;-65
2022/03/29 09:27:55;;;;;;;33.80;28.07;;;17.20;63.80;;;;;;5075804;28;20448;-65
2022/03/29 09:30:23;;;;;;;32.13;27.93;;;17.20;63.40;;;;;;5074543;28;20437;-65
2022/03/29 09:33:00;;;;;;;32.60;27.20;;;17.20;63.10;;;;;;5075718;28;20460;-65
2022/03/29 09:35:30;;;;;;;30.70;26.70;;;17.30;62.90;;;;;;5075678;28;20439;-65
2022/03/29 09:37:57;;;;;;;31.33;27.93;;;17.40;62.10;;;;;;5075594;28;20440;-65
2022/03/29 09:40:34;;;;;;;36.57;31.27;;;17.40;61.60;;;;;;5075340;28;20452;-64
2022/03/29 09:43:05;;;;;;;32.73;26.13;;;17.50;61.10;;;;;;5075244;28;21010;-65
2022/03/29 09:45:44;;;;;;;32.37;28.60;;;17.60;61.30;;;;;;5075391;28;20491;-65
2022/03/29 09:48:31;;;;;;;33.90;28.90;;;17.80;62.10;;;;;;5075558;28;20436;-65
2022/03/29 09:51:17;;;;;;;32.33;28.90;;;18.10;61.30;;;;;;5075345;28;20472;-65
2022/03/29 09:53:47;;;;;;;31.40;28.00;;;18.50;60.20;;;;;;5075392;28;20438;-65
2022/03/29 09:56:16;;;;;;;31.20;27.80;;;18.90;59.40;;;;;;5075365;28;20452;-65
2022/03/29 09:58:43;;;;;;;33.07;29.57;;;19.20;57.90;;;;;;5075317;28;20475;-65
2022/03/29 10:01:23;;;;;;;32.97;26.43;;;19.50;56.60;;;;;;5075181;28;20457;-65
2022/03/29 10:03:51;;;;;;;32.30;28.80;;;19.80;55.80;;;;;;5074768;28;20866;-65
2022/03/29 10:06:22;;;;;;;32.90;27.20;;;20.00;55.20;;;;;;5075013;28;20444;-65
2022/03/29 10:11:36;;;;;;;36.20;29.30;;;20.70;53.90;;;;;;5074744;28;21001;-66
2022/03/29 10:14:04;;;;;;;35.80;31.23;;;21.30;52.50;;;;;;5074911;28;20442;-66
2022/03/29 10:16:31;;;;;;;30.10;27.10;;;21.70;50.70;;;;;;5074665;28;20452;-66
2022/03/29 10:18:58;;;;;;;27.27;24.60;;;21.80;49.70;;;;;;5074634;28;20459;-66
2022/03/29 10:21:28;;;;;;;28.97;26.07;;;22.00;49.30;;;;;;5074641;28;20473;-66
2022/03/29 10:23:55;;;;;;;31.70;28.53;;;22.10;48.70;;;;;;5074587;28;20476;-66
2022/03/29 10:26:25;;;;;;;42.13;30.77;;;22.20;47.70;;;;;;5074706;28;20457;-66
2022/03/29 10:28:52;;;;;;;34.43;30.77;;;22.20;47.00;;;;;;5074594;28;20440;-66
2022/03/29 10:31:33;;;;;;;30.10;27.03;;;22.20;47.40;;;;;;5074542;28;20467;-66
2022/03/29 10:34:16;;;;;;;35.53;31.80;;;22.20;47.30;;;;;;5074722;28;20441;-66
2022/03/29 10:37:04;;;;;;;32.37;28.83;;;22.20;47.30;;;;;;5075403;28;20468;-66
2022/03/29 10:39:42;;;;;;;34.03;30.10;;;22.30;46.90;;;;;;5074128;28;20453;-66
2022/03/29 10:42:41;;;;;;;36.43;32.83;;;22.50;46.60;;;;;;5074319;28;20472;-66
2022/03/29 10:45:13;;;;;;;32.03;28.00;;;22.70;45.60;;;;;;5012295;28;20507;-66
2022/03/29 10:47:41;;;;;;;32.60;28.90;;;22.80;45.20;;;;;;5062818;28;20971;-66
2022/03/29 10:50:10;;;;;;;40.00;35.73;;;22.90;44.80;;;;;;5074082;28;20452;-66
2022/03/29 10:52:43;;;;;;;50.63;41.00;;;22.90;44.60;;;;;;5074084;28;20495;-66
2022/03/29 10:55:31;;;;;;;43.10;38.50;;;22.90;44.90;;;;;;5074111;28;20569;-65
2022/03/29 10:58:09;;;;;;;39.97;35.63;;;22.90;45.00;;;;;;5069270;28;20449;-65
2022/03/29 11:00:37;;;;;;;55.97;43.63;;;22.90;45.10;;;;;;5073651;28;20960;-66
2022/03/29 11:03:15;;;;;;;56.20;45.30;;;22.80;45.10;;;;;;5074087;28;20443;-66
2022/03/29 11:06:05;;;;;;;61.63;49.53;;;22.60;45.20;;;;;;5073948;28;20469;-66
2022/03/29 11:08:35;;;;;;;57.17;45.60;;;22.50;45.60;;;;;;5073857;28;20448;-66
2022/03/29 11:11:02;;;;;;;57.50;45.90;;;22.30;45.90;;;;;;5073763;28;20535;-65
2022/03/29 11:13:30;;;;;;;53.13;44.73;;;22.10;46.20;;;;;;5073741;28;20449;-66
2022/03/29 11:16:01;;;;;;;64.93;49.53;;;22.00;46.00;;;;;;5073383;28;20932;-66
2022/03/29 11:18:49;;;;;;;62.30;46.73;;;21.90;46.30;;;;;;5073570;28;20460;-66
2022/03/29 11:21:47;;;;;;;64.23;49.10;;;21.70;47.20;;;;;;5074063;28;20480;-66
2022/03/29 11:24:21;;;;;;;58.97;44.40;;;21.60;46.90;;;;;;5073296;28;20460;-66
2022/03/29 11:26:56;;;;;;;56.53;44.83;;;21.30;46.50;;;;;;5073318;28;20827;-66
2022/03/29 11:29:25;;;;;;;50.70;42.70;;;21.10;47.20;;;;;;5073478;28;20476;-66
2022/03/29 11:31:52;;;;;;;53.53;43.87;;;20.90;47.70;;;;;;5073564;28;20504;-66
2022/03/29 11:34:19;;;;;;;55.17;43.77;;;20.80;47.70;;;;;;5074156;28;20448;-66
2022/03/29 11:36:46;;;;;;;56.33;42.20;;;20.60;48.00;;;;;;5073449;28;20444;-66
2022/03/29 11:39:25;;;;;;;52.60;41.47;;;20.40;47.60;;;;;;5073211;28;20447;-65
2022/03/29 11:41:55;;;;;;;54.83;43.00;;;20.20;48.50;;;;;;5073405;28;20526;-65
2022/03/29 11:44:24;;;;;;;70.20;49.20;;;20.00;48.80;;;;;;5073452;28;20513;-65
2022/03/29 11:46:53;;;;;;;72.00;49.23;;;19.90;49.50;;;;;;5072982;28;20449;-65
2022/03/29 11:49:26;;;;;;;70.57;50.40;;;19.70;50.00;;;;;;5073378;28;20488;-66
2022/03/29 11:52:04;;;;;;;75.63;51.23;;;19.60;50.40;;;;;;5072594;28;20476;-66
2022/03/29 11:54:38;;;;;;;81.90;54.37;;;19.40;50.50;;;;;;5073265;28;20448;-66
2022/03/29 11:57:22;;;;;;;71.40;48.50;;;19.40;51.00;;;;;;5073405;28;20433;-66
2022/03/29 11:59:49;;;;;;;64.70;46.03;;;19.40;51.10;;;;;;5072940;28;20441;-66
2022/03/29 12:02:18;;;;;;;61.33;41.00;;;19.40;50.60;;;;;;5072727;28;20975;-66
2022/03/29 12:04:45;;;;;;;55.23;41.30;;;19.40;50.80;;;;;;5073111;28;20499;-66
2022/03/29 12:07:12;;;;;;;49.70;40.53;;;19.60;50.50;;;;;;5073200;28;20472;-66
2022/03/29 12:09:46;;;;;;;59.90;44.67;;;19.90;50.50;;;;;;5073437;28;20479;-66
2022/03/29 12:12:13;;;;;;;62.90;42.57;;;20.30;49.80;;;;;;5073152;28;20523;-66
2022/03/29 12:14:40;;;;;;;58.83;43.97;;;20.70;49.00;;;;;;5073181;28;20448;-66
2022/03/29 12:17:08;;;;;;;54.40;41.73;;;21.00;48.10;;;;;;5073120;28;20452;-66
2022/03/29 12:19:36;;;;;;;55.07;41.20;;;21.50;47.10;;;;;;5072654;28;20467;-66
2022/03/29 12:22:08;;;;;;;56.83;42.20;;;21.90;46.60;;;;;;5073017;28;20479;-66
2022/03/29 12:24:37;;;;;;;53.87;42.70;;;22.10;45.70;;;;;;5073006;28;20468;-66
2022/03/29 12:27:10;;;;;;;52.83;42.67;;;22.10;45.90;;;;;;5073161;28;20533;-66
2022/03/29 12:29:41;;;;;;;54.53;44.60;;;22.10;45.00;;;;;;5073292;28;20494;-66
2022/03/29 12:32:09;;;;;;;50.30;42.60;;;22.00;44.90;;;;;;5072730;28;20979;-66
2022/03/29 12:34:36;;;;;;;56.30;45.20;;;21.80;45.50;;;;;;5073096;28;20827;-66
2022/03/29 12:37:06;;;;;;;56.77;44.90;;;21.80;46.00;;;;;;5072959;28;20455;-66
2022/03/29 12:39:34;;;;;;;60.10;44.67;;;21.70;46.00;;;;;;5072578;28;20923;-66
2022/03/29 12:42:01;;;;;;;60.97;46.30;;;21.50;45.60;;;;;;5072794;28;20468;-66
2022/03/29 12:44:32;;;;;;;72.00;52.67;;;21.30;46.50;;;;;;5072906;28;20799;-66
2022/03/29 12:47:00;;;;;;;70.33;51.77;;;21.10;46.40;;;;;;5072831;28;20429;-66